sensor_id;sensor_type;location;lat;lon;timestamp;temperature;humidity
18229;DHT22;9239;50.932;3.142;2023-05-18T00:01:20;9.20;99.90
18229;DHT22;9239;50.932;3.142;2023-05-18T00:03:47;9.20;99.90
18229;DHT22;9239;50.932;3.142;2023-05-18T00:06:14;9.20;99.90
18229;DHT22;9239;50.932;3.142;2023-05-18T00:08:43;9.20;99.90
18229;DHT22;9239;50.932;3.142;2023-05-18T00:11:10;9.30;99.90
18229;DHT22;9239;50.932;3.142;2023-05-18T00:13:37;9.30;99.90
18229;DHT22;9239;50.932;3.142;2023-05-18T00:16:04;9.30;99.90
18229;DHT22;9239;50.932;3.142;2023-05-18T00:18:31;9.40;99.90
18229;DHT22;9239;50.932;3.142;2023-05-18T00:20:59;9.30;99.90
18229;DHT22;9239;50.932;3.142;2023-05-18T00:23:26;9.30;99.90
18229;DHT22;9239;50.932;3.142;2023-05-18T00:25:56;9.20;99.90
18229;DHT22;9239;50.932;3.142;2023-05-18T00:28:24;9.10;99.90
18229;DHT22;9239;50.932;3.142;2023-05-18T00:30:51;9.00;99.90
18229;DHT22;9239;50.932;3.142;2023-05-18T00:33:18;9.00;99.90
18229;DHT22;9239;50.932;3.142;2023-05-18T00:35:45;9.00;99.90
18229;DHT22;9239;50.932;3.142;2023-05-18T00:38:12;9.00;99.90
18229;DHT22;9239;50.932;3.142;2023-05-18T00:40:41;9.00;99.90
18229;DHT22;9239;50.932;3.142;2023-05-18T00:43:09;8.90;99.90
18229;DHT22;9239;50.932;3.142;2023-05-18T00:45:36;8.90;99.90
18229;DHT22;9239;50.932;3.142;2023-05-18T00:48:03;8.80;99.90
18229;DHT22;9239;50.932;3.142;2023-05-18T00:50:30;8.80;99.90
18229;DHT22;9239;50.932;3.142;2023-05-18T00:52:57;8.90;99.90
18229;DHT22;9239;50.932;3.142;2023-05-18T00:55:25;8.80;99.90
18229;DHT22;9239;50.932;3.142;2023-05-18T00:57:53;8.80;99.90
18229;DHT22;9239;50.932;3.142;2023-05-18T01:00:22;8.90;99.90
18229;DHT22;9239;50.932;3.142;2023-05-18T01:02:49;8.90;99.90
18229;DHT22;9239;50.932;3.142;2023-05-18T01:05:17;8.90;99.90
18229;DHT22;9239;50.932;3.142;2023-05-18T01:07:44;8.90;99.90
18229;DHT22;9239;50.932;3.142;2023-05-18T01:10:13;8.80;99.90
18229;DHT22;9239;50.932;3.142;2023-05-18T01:12:47;8.90;99.90
18229;DHT22;9239;50.932;3.142;2023-05-18T01:15:17;8.80;99.90
18229;DHT22;9239;50.932;3.142;2023-05-18T01:17:54;8.90;99.90
18229;DHT22;9239;50.932;3.142;2023-05-18T01:20:31;8.80;99.90
18229;DHT22;9239;50.932;3.142;2023-05-18T01:23:31;8.80;99.90
18229;DHT22;9239;50.932;3.142;2023-05-18T01:26:12;8.80;99.90
18229;DHT22;9239;50.932;3.142;2023-05-18T01:28:42;8.80;99.90
18229;DHT22;9239;50.932;3.142;2023-05-18T01:31:11;8.80;99.90
18229;DHT22;9239;50.932;3.142;2023-05-18T01:33:38;8.70;99.90
18229;DHT22;9239;50.932;3.142;2023-05-18T01:36:06;8.80;99.90
18229;DHT22;9239;50.932;3.142;2023-05-18T01:38:34;8.80;99.90
18229;DHT22;9239;50.932;3.142;2023-05-18T01:41:05;8.70;99.90
18229;DHT22;9239;50.932;3.142;2023-05-18T01:43:36;8.70;99.90
18229;DHT22;9239;50.932;3.142;2023-05-18T01:46:10;8.60;99.90
18229;DHT22;9239;50.932;3.142;2023-05-18T01:48:41;8.60;99.90
18229;DHT22;9239;50.932;3.142;2023-05-18T01:51:13;8.70;99.90
18229;DHT22;9239;50.932;3.142;2023-05-18T01:53:45;8.70;99.90
18229;DHT22;9239;50.932;3.142;2023-05-18T01:56:13;8.70;99.90
18229;DHT22;9239;50.932;3.142;2023-05-18T01:58:42;8.60;99.90
18229;DHT22;9239;50.932;3.142;2023-05-18T02:01:09;8.70;99.90
18229;DHT22;9239;50.932;3.142;2023-05-18T02:03:36;8.60;99.90
18229;DHT22;9239;50.932;3.142;2023-05-18T02:06:03;8.60;99.90
18229;DHT22;9239;50.932;3.142;2023-05-18T02:08:30;8.60;99.90
18229;DHT22;9239;50.932;3.142;2023-05-18T02:10:58;8.50;99.90
18229;DHT22;9239;50.932;3.142;2023-05-18T02:13:25;8.50;99.90
18229;DHT22;9239;50.932;3.142;2023-05-18T02:15:53;8.50;99.90
18229;DHT22;9239;50.932;3.142;2023-05-18T02:18:20;8.50;99.90
18229;DHT22;9239;50.932;3.142;2023-05-18T02:20:48;8.50;99.90
18229;DHT22;9239;50.932;3.142;2023-05-18T02:23:15;8.60;99.90
18229;DHT22;9239;50.932;3.142;2023-05-18T02:25:42;8.50;99.90
18229;DHT22;9239;50.932;3.142;2023-05-18T02:28:09;8.50;99.90
18229;DHT22;9239;50.932;3.142;2023-05-18T02:30:36;8.50;99.90
18229;DHT22;9239;50.932;3.142;2023-05-18T02:33:04;8.60;99.90
18229;DHT22;9239;50.932;3.142;2023-05-18T02:35:33;8.60;99.90
18229;DHT22;9239;50.932;3.142;2023-05-18T02:38:00;8.60;99.90
18229;DHT22;9239;50.932;3.142;2023-05-18T02:40:28;8.50;99.90
18229;DHT22;9239;50.932;3.142;2023-05-18T02:42:55;8.40;99.90
18229;DHT22;9239;50.932;3.142;2023-05-18T02:45:22;8.30;99.90
18229;DHT22;9239;50.932;3.142;2023-05-18T02:47:49;8.30;99.90
18229;DHT22;9239;50.932;3.142;2023-05-18T02:50:18;8.30;99.90
18229;DHT22;9239;50.932;3.142;2023-05-18T02:52:44;8.30;99.90
18229;DHT22;9239;50.932;3.142;2023-05-18T02:55:13;8.30;99.90
18229;DHT22;9239;50.932;3.142;2023-05-18T02:57:41;8.20;99.90
18229;DHT22;9239;50.932;3.142;2023-05-18T03:00:12;8.30;99.90
18229;DHT22;9239;50.932;3.142;2023-05-18T03:02:41;8.20;99.90
18229;DHT22;9239;50.932;3.142;2023-05-18T03:05:08;8.20;99.90
18229;DHT22;9239;50.932;3.142;2023-05-18T03:07:37;8.20;99.90
18229;DHT22;9239;50.932;3.142;2023-05-18T03:10:04;8.20;99.90
18229;DHT22;9239;50.932;3.142;2023-05-18T03:12:32;8.10;99.90
18229;DHT22;9239;50.932;3.142;2023-05-18T03:14:59;8.20;99.90
18229;DHT22;9239;50.932;3.142;2023-05-18T03:17:26;8.30;99.90
18229;DHT22;9239;50.932;3.142;2023-05-18T03:19:53;8.30;99.90
18229;DHT22;9239;50.932;3.142;2023-05-18T03:22:20;8.30;99.90
18229;DHT22;9239;50.932;3.142;2023-05-18T03:24:49;8.30;99.90
18229;DHT22;9239;50.932;3.142;2023-05-18T03:27:15;8.30;99.90
18229;DHT22;9239;50.932;3.142;2023-05-18T03:29:43;8.40;99.90
18229;DHT22;9239;50.932;3.142;2023-05-18T03:32:10;8.40;99.90
18229;DHT22;9239;50.932;3.142;2023-05-18T03:34:37;8.30;99.90
18229;DHT22;9239;50.932;3.142;2023-05-18T03:37:04;8.30;99.90
18229;DHT22;9239;50.932;3.142;2023-05-18T03:39:31;8.30;99.90
18229;DHT22;9239;50.932;3.142;2023-05-18T03:41:59;8.40;99.90
18229;DHT22;9239;50.932;3.142;2023-05-18T03:44:26;8.40;99.90
18229;DHT22;9239;50.932;3.142;2023-05-18T03:46:53;8.40;99.90
18229;DHT22;9239;50.932;3.142;2023-05-18T03:49:20;8.30;99.90
18229;DHT22;9239;50.932;3.142;2023-05-18T03:51:47;8.30;99.90
18229;DHT22;9239;50.932;3.142;2023-05-18T03:54:14;8.30;99.90
18229;DHT22;9239;50.932;3.142;2023-05-18T03:56:41;8.20;99.90
18229;DHT22;9239;50.932;3.142;2023-05-18T03:59:09;8.20;99.90
18229;DHT22;9239;50.932;3.142;2023-05-18T04:01:36;8.20;99.90
18229;DHT22;9239;50.932;3.142;2023-05-18T04:04:06;8.30;99.90
18229;DHT22;9239;50.932;3.142;2023-05-18T04:06:33;8.20;99.90
18229;DHT22;9239;50.932;3.142;2023-05-18T04:09:00;8.20;99.90
18229;DHT22;9239;50.932;3.142;2023-05-18T04:11:29;8.20;99.90
18229;DHT22;9239;50.932;3.142;2023-05-18T04:13:56;8.30;99.90
18229;DHT22;9239;50.932;3.142;2023-05-18T04:16:26;8.30;99.90
18229;DHT22;9239;50.932;3.142;2023-05-18T04:18:53;8.20;99.90
18229;DHT22;9239;50.932;3.142;2023-05-18T04:21:20;8.30;99.90
18229;DHT22;9239;50.932;3.142;2023-05-18T04:23:47;8.30;99.90
18229;DHT22;9239;50.932;3.142;2023-05-18T04:26:14;8.40;99.90
18229;DHT22;9239;50.932;3.142;2023-05-18T04:28:44;8.40;99.90
18229;DHT22;9239;50.932;3.142;2023-05-18T04:31:11;8.40;99.90
18229;DHT22;9239;50.932;3.142;2023-05-18T04:33:40;8.40;99.90
18229;DHT22;9239;50.932;3.142;2023-05-18T04:36:11;8.40;99.90
18229;DHT22;9239;50.932;3.142;2023-05-18T04:38:38;8.40;99.90
18229;DHT22;9239;50.932;3.142;2023-05-18T04:41:05;8.50;99.90
18229;DHT22;9239;50.932;3.142;2023-05-18T04:43:33;8.50;99.90
18229;DHT22;9239;50.932;3.142;2023-05-18T04:46:00;8.40;99.90
18229;DHT22;9239;50.932;3.142;2023-05-18T04:48:28;8.40;99.90
18229;DHT22;9239;50.932;3.142;2023-05-18T04:50:56;8.50;99.90
18229;DHT22;9239;50.932;3.142;2023-05-18T04:53:23;8.60;99.90
18229;DHT22;9239;50.932;3.142;2023-05-18T04:55:52;8.70;99.90
18229;DHT22;9239;50.932;3.142;2023-05-18T04:58:19;8.70;99.90
18229;DHT22;9239;50.932;3.142;2023-05-18T05:00:45;8.80;99.90
18229;DHT22;9239;50.932;3.142;2023-05-18T05:03:12;8.80;99.90
18229;DHT22;9239;50.932;3.142;2023-05-18T05:05:40;8.90;99.90
18229;DHT22;9239;50.932;3.142;2023-05-18T05:08:08;9.00;99.90
18229;DHT22;9239;50.932;3.142;2023-05-18T05:10:36;9.00;99.90
18229;DHT22;9239;50.932;3.142;2023-05-18T05:13:03;9.20;99.90
18229;DHT22;9239;50.932;3.142;2023-05-18T05:15:30;9.20;99.90
18229;DHT22;9239;50.932;3.142;2023-05-18T05:17:58;9.20;99.90
18229;DHT22;9239;50.932;3.142;2023-05-18T05:20:25;9.30;99.90
18229;DHT22;9239;50.932;3.142;2023-05-18T05:22:52;9.40;99.90
18229;DHT22;9239;50.932;3.142;2023-05-18T05:25:21;9.50;99.90
18229;DHT22;9239;50.932;3.142;2023-05-18T05:27:48;9.60;99.90
18229;DHT22;9239;50.932;3.142;2023-05-18T05:30:14;9.70;99.90
18229;DHT22;9239;50.932;3.142;2023-05-18T05:32:41;9.80;99.90
18229;DHT22;9239;50.932;3.142;2023-05-18T05:35:09;9.90;99.90
18229;DHT22;9239;50.932;3.142;2023-05-18T05:37:36;9.60;99.90
18229;DHT22;9239;50.932;3.142;2023-05-18T05:40:03;9.60;99.90
18229;DHT22;9239;50.932;3.142;2023-05-18T05:42:32;9.70;99.90
18229;DHT22;9239;50.932;3.142;2023-05-18T05:44:59;9.70;99.90
18229;DHT22;9239;50.932;3.142;2023-05-18T05:47:26;9.70;99.90
18229;DHT22;9239;50.932;3.142;2023-05-18T05:49:54;9.80;99.90
18229;DHT22;9239;50.932;3.142;2023-05-18T05:52:21;9.80;99.90
18229;DHT22;9239;50.932;3.142;2023-05-18T05:54:48;9.90;99.90
18229;DHT22;9239;50.932;3.142;2023-05-18T05:57:15;10.00;99.90
18229;DHT22;9239;50.932;3.142;2023-05-18T05:59:43;10.00;99.90
18229;DHT22;9239;50.932;3.142;2023-05-18T06:02:10;10.10;99.90
18229;DHT22;9239;50.932;3.142;2023-05-18T06:04:37;10.40;99.90
18229;DHT22;9239;50.932;3.142;2023-05-18T06:07:05;10.50;99.90
18229;DHT22;9239;50.932;3.142;2023-05-18T06:09:32;10.40;99.90
18229;DHT22;9239;50.932;3.142;2023-05-18T06:11:59;10.50;99.90
18229;DHT22;9239;50.932;3.142;2023-05-18T06:14:26;10.60;99.90
18229;DHT22;9239;50.932;3.142;2023-05-18T06:16:54;10.60;99.90
18229;DHT22;9239;50.932;3.142;2023-05-18T06:19:21;10.50;99.90
18229;DHT22;9239;50.932;3.142;2023-05-18T06:21:48;10.60;99.90
18229;DHT22;9239;50.932;3.142;2023-05-18T06:24:15;10.80;99.90
18229;DHT22;9239;50.932;3.142;2023-05-18T06:26:42;10.90;99.90
18229;DHT22;9239;50.932;3.142;2023-05-18T06:29:09;11.00;99.90
18229;DHT22;9239;50.932;3.142;2023-05-18T06:31:36;11.10;99.90
18229;DHT22;9239;50.932;3.142;2023-05-18T06:34:05;11.10;99.90
18229;DHT22;9239;50.932;3.142;2023-05-18T06:36:32;11.10;99.90
18229;DHT22;9239;50.932;3.142;2023-05-18T06:38:59;11.20;99.90
18229;DHT22;9239;50.932;3.142;2023-05-18T06:41:26;11.10;99.90
18229;DHT22;9239;50.932;3.142;2023-05-18T06:43:53;11.20;99.90
18229;DHT22;9239;50.932;3.142;2023-05-18T06:46:21;11.10;99.90
18229;DHT22;9239;50.932;3.142;2023-05-18T06:48:48;11.30;99.90
18229;DHT22;9239;50.932;3.142;2023-05-18T06:51:17;11.40;99.90
18229;DHT22;9239;50.932;3.142;2023-05-18T06:53:44;11.50;99.90
18229;DHT22;9239;50.932;3.142;2023-05-18T06:56:11;11.60;99.90
18229;DHT22;9239;50.932;3.142;2023-05-18T06:58:38;11.90;99.90
18229;DHT22;9239;50.932;3.142;2023-05-18T07:01:05;11.90;99.90
18229;DHT22;9239;50.932;3.142;2023-05-18T07:03:32;12.30;99.90
18229;DHT22;9239;50.932;3.142;2023-05-18T07:06:00;12.60;99.90
18229;DHT22;9239;50.932;3.142;2023-05-18T07:08:28;12.30;99.90
18229;DHT22;9239;50.932;3.142;2023-05-18T07:10:55;12.00;99.90
18229;DHT22;9239;50.932;3.142;2023-05-18T07:13:23;11.60;99.90
18229;DHT22;9239;50.932;3.142;2023-05-18T07:15:50;11.50;99.90
18229;DHT22;9239;50.932;3.142;2023-05-18T07:18:17;11.50;99.90
18229;DHT22;9239;50.932;3.142;2023-05-18T07:20:44;11.50;99.90
18229;DHT22;9239;50.932;3.142;2023-05-18T07:23:11;11.50;99.90
18229;DHT22;9239;50.932;3.142;2023-05-18T07:25:40;11.50;99.90
18229;DHT22;9239;50.932;3.142;2023-05-18T07:28:07;11.50;99.90
18229;DHT22;9239;50.932;3.142;2023-05-18T07:30:34;11.50;99.90
18229;DHT22;9239;50.932;3.142;2023-05-18T07:33:01;11.70;99.90
18229;DHT22;9239;50.932;3.142;2023-05-18T07:35:28;12.00;99.90
18229;DHT22;9239;50.932;3.142;2023-05-18T07:37:55;12.10;99.90
18229;DHT22;9239;50.932;3.142;2023-05-18T07:40:22;12.20;99.90
18229;DHT22;9239;50.932;3.142;2023-05-18T07:42:51;12.20;99.90
18229;DHT22;9239;50.932;3.142;2023-05-18T07:45:18;11.90;99.90
18229;DHT22;9239;50.932;3.142;2023-05-18T07:47:45;11.90;99.90
18229;DHT22;9239;50.932;3.142;2023-05-18T07:50:12;12.00;99.90
18229;DHT22;9239;50.932;3.142;2023-05-18T07:52:39;12.00;99.90
18229;DHT22;9239;50.932;3.142;2023-05-18T07:55:06;11.80;99.90
18229;DHT22;9239;50.932;3.142;2023-05-18T07:57:34;12.00;99.90
18229;DHT22;9239;50.932;3.142;2023-05-18T08:00:02;12.20;99.90
18229;DHT22;9239;50.932;3.142;2023-05-18T08:02:31;12.10;99.90
18229;DHT22;9239;50.932;3.142;2023-05-18T08:04:58;12.10;99.90
18229;DHT22;9239;50.932;3.142;2023-05-18T08:07:27;12.10;99.90
18229;DHT22;9239;50.932;3.142;2023-05-18T08:09:54;12.20;99.90
18229;DHT22;9239;50.932;3.142;2023-05-18T08:12:22;12.40;99.90
18229;DHT22;9239;50.932;3.142;2023-05-18T08:14:49;12.20;99.90
18229;DHT22;9239;50.932;3.142;2023-05-18T08:17:17;12.30;99.90
18229;DHT22;9239;50.932;3.142;2023-05-18T08:19:45;12.40;99.90
18229;DHT22;9239;50.932;3.142;2023-05-18T08:22:13;12.60;99.90
18229;DHT22;9239;50.932;3.142;2023-05-18T08:24:40;12.70;99.90
18229;DHT22;9239;50.932;3.142;2023-05-18T08:27:06;12.80;99.90
18229;DHT22;9239;50.932;3.142;2023-05-18T08:29:35;12.90;99.90
18229;DHT22;9239;50.932;3.142;2023-05-18T08:32:04;13.00;99.90
18229;DHT22;9239;50.932;3.142;2023-05-18T08:34:33;13.20;99.90
18229;DHT22;9239;50.932;3.142;2023-05-18T08:37:01;13.30;99.90
18229;DHT22;9239;50.932;3.142;2023-05-18T08:39:28;13.40;99.90
18229;DHT22;9239;50.932;3.142;2023-05-18T08:42:01;13.50;99.90
18229;DHT22;9239;50.932;3.142;2023-05-18T08:44:39;13.60;99.90
18229;DHT22;9239;50.932;3.142;2023-05-18T08:47:08;13.70;99.90
18229;DHT22;9239;50.932;3.142;2023-05-18T08:49:37;13.90;99.90
18229;DHT22;9239;50.932;3.142;2023-05-18T08:52:07;13.70;99.90
18229;DHT22;9239;50.932;3.142;2023-05-18T08:54:35;13.70;99.90
18229;DHT22;9239;50.932;3.142;2023-05-18T08:57:04;13.70;99.90
18229;DHT22;9239;50.932;3.142;2023-05-18T08:59:37;13.60;99.90
18229;DHT22;9239;50.932;3.142;2023-05-18T09:02:05;13.40;99.90
18229;DHT22;9239;50.932;3.142;2023-05-18T09:04:32;13.50;99.90
18229;DHT22;9239;50.932;3.142;2023-05-18T09:07:01;13.40;99.90
18229;DHT22;9239;50.932;3.142;2023-05-18T09:09:30;13.40;99.90
18229;DHT22;9239;50.932;3.142;2023-05-18T09:11:57;13.40;99.90
18229;DHT22;9239;50.932;3.142;2023-05-18T09:14:25;13.50;99.90
18229;DHT22;9239;50.932;3.142;2023-05-18T09:16:52;13.60;99.90
18229;DHT22;9239;50.932;3.142;2023-05-18T09:19:19;13.70;99.90
18229;DHT22;9239;50.932;3.142;2023-05-18T09:21:46;13.80;99.90
18229;DHT22;9239;50.932;3.142;2023-05-18T09:24:14;13.90;99.90
18229;DHT22;9239;50.932;3.142;2023-05-18T09:26:43;13.70;99.90
18229;DHT22;9239;50.932;3.142;2023-05-18T09:29:18;13.80;99.90
18229;DHT22;9239;50.932;3.142;2023-05-18T09:31:46;14.00;99.90
18229;DHT22;9239;50.932;3.142;2023-05-18T09:34:13;13.90;99.90
18229;DHT22;9239;50.932;3.142;2023-05-18T09:36:40;14.00;99.90
18229;DHT22;9239;50.932;3.142;2023-05-18T09:39:11;13.90;99.90
18229;DHT22;9239;50.932;3.142;2023-05-18T09:41:40;13.90;99.90
18229;DHT22;9239;50.932;3.142;2023-05-18T09:44:07;13.90;99.90
18229;DHT22;9239;50.932;3.142;2023-05-18T09:46:35;14.00;99.90
18229;DHT22;9239;50.932;3.142;2023-05-18T09:49:03;14.00;99.90
18229;DHT22;9239;50.932;3.142;2023-05-18T09:51:34;14.00;99.90
18229;DHT22;9239;50.932;3.142;2023-05-18T09:54:01;14.10;99.90
18229;DHT22;9239;50.932;3.142;2023-05-18T09:56:34;13.70;99.90
18229;DHT22;9239;50.932;3.142;2023-05-18T09:59:09;13.80;99.90
18229;DHT22;9239;50.932;3.142;2023-05-18T10:01:36;13.90;99.90
18229;DHT22;9239;50.932;3.142;2023-05-18T10:04:04;13.90;99.90
18229;DHT22;9239;50.932;3.142;2023-05-18T10:06:31;14.00;99.90
18229;DHT22;9239;50.932;3.142;2023-05-18T10:09:01;13.80;99.90
18229;DHT22;9239;50.932;3.142;2023-05-18T10:11:30;13.90;99.90
18229;DHT22;9239;50.932;3.142;2023-05-18T10:13:58;14.20;99.90
18229;DHT22;9239;50.932;3.142;2023-05-18T10:16:27;14.20;99.90
18229;DHT22;9239;50.932;3.142;2023-05-18T10:18:55;14.30;99.90
18229;DHT22;9239;50.932;3.142;2023-05-18T10:21:23;14.50;99.90
18229;DHT22;9239;50.932;3.142;2023-05-18T10:23:54;14.60;99.90
18229;DHT22;9239;50.932;3.142;2023-05-18T10:26:22;14.60;99.90
18229;DHT22;9239;50.932;3.142;2023-05-18T10:28:52;14.20;99.90
18229;DHT22;9239;50.932;3.142;2023-05-18T10:31:22;14.20;99.90
18229;DHT22;9239;50.932;3.142;2023-05-18T10:33:52;14.20;99.90
18229;DHT22;9239;50.932;3.142;2023-05-18T10:36:21;14.10;99.90
18229;DHT22;9239;50.932;3.142;2023-05-18T10:38:51;14.10;99.90
18229;DHT22;9239;50.932;3.142;2023-05-18T10:41:20;14.00;99.90
18229;DHT22;9239;50.932;3.142;2023-05-18T10:43:48;14.10;99.90
18229;DHT22;9239;50.932;3.142;2023-05-18T10:46:17;14.20;99.90
18229;DHT22;9239;50.932;3.142;2023-05-18T10:48:47;14.30;99.90
18229;DHT22;9239;50.932;3.142;2023-05-18T10:51:18;14.40;99.90
18229;DHT22;9239;50.932;3.142;2023-05-18T10:53:46;14.50;99.90
18229;DHT22;9239;50.932;3.142;2023-05-18T10:56:14;14.70;99.90
18229;DHT22;9239;50.932;3.142;2023-05-18T10:58:42;14.90;99.90
18229;DHT22;9239;50.932;3.142;2023-05-18T11:01:10;15.00;99.90
18229;DHT22;9239;50.932;3.142;2023-05-18T11:03:38;15.00;99.90
18229;DHT22;9239;50.932;3.142;2023-05-18T11:06:07;14.70;99.90
18229;DHT22;9239;50.932;3.142;2023-05-18T11:08:44;14.70;99.90
18229;DHT22;9239;50.932;3.142;2023-05-18T11:11:12;14.90;99.90
18229;DHT22;9239;50.932;3.142;2023-05-18T11:13:43;14.70;99.90
18229;DHT22;9239;50.932;3.142;2023-05-18T11:16:10;14.70;99.90
18229;DHT22;9239;50.932;3.142;2023-05-18T11:18:40;14.90;99.90
18229;DHT22;9239;50.932;3.142;2023-05-18T11:21:28;14.90;99.90
18229;DHT22;9239;50.932;3.142;2023-05-18T11:24:19;14.80;99.90
18229;DHT22;9239;50.932;3.142;2023-05-18T11:26:48;14.90;99.90
18229;DHT22;9239;50.932;3.142;2023-05-18T11:29:16;14.90;99.90
18229;DHT22;9239;50.932;3.142;2023-05-18T11:31:44;15.00;99.90
18229;DHT22;9239;50.932;3.142;2023-05-18T11:34:40;15.00;99.90
18229;DHT22;9239;50.932;3.142;2023-05-18T11:37:09;15.10;99.90
18229;DHT22;9239;50.932;3.142;2023-05-18T11:39:38;15.10;99.90
18229;DHT22;9239;50.932;3.142;2023-05-18T11:42:07;15.20;99.90
18229;DHT22;9239;50.932;3.142;2023-05-18T11:44:34;15.30;99.90
18229;DHT22;9239;50.932;3.142;2023-05-18T11:47:06;15.20;99.90
18229;DHT22;9239;50.932;3.142;2023-05-18T11:49:36;15.20;99.90
18229;DHT22;9239;50.932;3.142;2023-05-18T11:52:06;15.40;99.90
18229;DHT22;9239;50.932;3.142;2023-05-18T11:54:40;15.20;99.90
18229;DHT22;9239;50.932;3.142;2023-05-18T11:57:09;15.40;99.90
18229;DHT22;9239;50.932;3.142;2023-05-18T11:59:38;15.50;99.90
18229;DHT22;9239;50.932;3.142;2023-05-18T12:02:05;15.60;99.90
18229;DHT22;9239;50.932;3.142;2023-05-18T12:04:41;15.80;99.90
18229;DHT22;9239;50.932;3.142;2023-05-18T12:07:09;15.80;99.90
18229;DHT22;9239;50.932;3.142;2023-05-18T12:09:39;15.80;99.90
18229;DHT22;9239;50.932;3.142;2023-05-18T12:12:07;15.80;99.90
18229;DHT22;9239;50.932;3.142;2023-05-18T12:14:36;15.70;99.90
18229;DHT22;9239;50.932;3.142;2023-05-18T12:17:09;15.80;99.90
18229;DHT22;9239;50.932;3.142;2023-05-18T12:19:40;15.80;99.90
18229;DHT22;9239;50.932;3.142;2023-05-18T12:22:07;15.90;99.90
18229;DHT22;9239;50.932;3.142;2023-05-18T12:24:37;16.00;99.90
18229;DHT22;9239;50.932;3.142;2023-05-18T12:27:06;16.10;99.90
18229;DHT22;9239;50.932;3.142;2023-05-18T12:29:37;16.20;99.90
18229;DHT22;9239;50.932;3.142;2023-05-18T12:32:05;16.00;99.90
18229;DHT22;9239;50.932;3.142;2023-05-18T12:34:34;16.00;99.90
18229;DHT22;9239;50.932;3.142;2023-05-18T12:37:01;15.90;99.90
18229;DHT22;9239;50.932;3.142;2023-05-18T12:39:28;15.80;99.90
18229;DHT22;9239;50.932;3.142;2023-05-18T12:42:09;15.90;99.90
18229;DHT22;9239;50.932;3.142;2023-05-18T12:44:36;16.20;99.90
18229;DHT22;9239;50.932;3.142;2023-05-18T12:47:10;16.30;99.90
18229;DHT22;9239;50.932;3.142;2023-05-18T12:49:41;16.30;99.90
18229;DHT22;9239;50.932;3.142;2023-05-18T12:52:10;16.20;99.90
18229;DHT22;9239;50.932;3.142;2023-05-18T12:54:48;16.40;99.90
18229;DHT22;9239;50.932;3.142;2023-05-18T12:57:21;16.30;99.90
18229;DHT22;9239;50.932;3.142;2023-05-18T13:00:00;16.40;99.90
18229;DHT22;9239;50.932;3.142;2023-05-18T13:02:36;16.50;99.90
18229;DHT22;9239;50.932;3.142;2023-05-18T13:05:05;16.50;99.90
18229;DHT22;9239;50.932;3.142;2023-05-18T13:07:37;16.60;99.90
18229;DHT22;9239;50.932;3.142;2023-05-18T13:10:06;16.80;99.90
18229;DHT22;9239;50.932;3.142;2023-05-18T13:12:44;16.70;99.90
18229;DHT22;9239;50.932;3.142;2023-05-18T13:15:14;16.50;99.90
18229;DHT22;9239;50.932;3.142;2023-05-18T13:17:57;16.50;99.90
18229;DHT22;9239;50.932;3.142;2023-05-18T13:20:29;16.40;99.90
18229;DHT22;9239;50.932;3.142;2023-05-18T13:22:57;16.40;99.90
18229;DHT22;9239;50.932;3.142;2023-05-18T13:25:25;16.40;99.90
18229;DHT22;9239;50.932;3.142;2023-05-18T13:27:53;16.60;99.90
18229;DHT22;9239;50.932;3.142;2023-05-18T13:30:21;16.60;99.90
18229;DHT22;9239;50.932;3.142;2023-05-18T13:32:49;16.40;99.90
18229;DHT22;9239;50.932;3.142;2023-05-18T13:35:16;16.40;99.90
18229;DHT22;9239;50.932;3.142;2023-05-18T13:37:45;16.40;99.90
18229;DHT22;9239;50.932;3.142;2023-05-18T13:40:13;16.40;99.90
18229;DHT22;9239;50.932;3.142;2023-05-18T13:42:41;16.50;99.90
18229;DHT22;9239;50.932;3.142;2023-05-18T13:45:11;16.60;99.90
18229;DHT22;9239;50.932;3.142;2023-05-18T13:47:38;16.50;99.90
18229;DHT22;9239;50.932;3.142;2023-05-18T13:50:06;16.60;99.90
18229;DHT22;9239;50.932;3.142;2023-05-18T13:52:34;16.70;99.90
18229;DHT22;9239;50.932;3.142;2023-05-18T13:55:01;16.80;99.90
18229;DHT22;9239;50.932;3.142;2023-05-18T13:57:34;16.70;99.90
18229;DHT22;9239;50.932;3.142;2023-05-18T14:00:02;16.60;99.90
18229;DHT22;9239;50.932;3.142;2023-05-18T14:02:36;16.30;99.90
18229;DHT22;9239;50.932;3.142;2023-05-18T14:05:03;16.40;99.90
18229;DHT22;9239;50.932;3.142;2023-05-18T14:07:33;16.50;99.90
18229;DHT22;9239;50.932;3.142;2023-05-18T14:10:00;16.50;99.90
18229;DHT22;9239;50.932;3.142;2023-05-18T14:12:27;16.60;99.90
18229;DHT22;9239;50.932;3.142;2023-05-18T14:14:54;16.70;99.90
18229;DHT22;9239;50.932;3.142;2023-05-18T14:17:22;16.80;99.90
18229;DHT22;9239;50.932;3.142;2023-05-18T14:19:50;16.90;99.90
18229;DHT22;9239;50.932;3.142;2023-05-18T14:22:17;17.00;99.90
18229;DHT22;9239;50.932;3.142;2023-05-18T14:24:46;17.00;99.90
18229;DHT22;9239;50.932;3.142;2023-05-18T14:27:13;16.90;99.90
18229;DHT22;9239;50.932;3.142;2023-05-18T14:29:40;16.80;99.90
18229;DHT22;9239;50.932;3.142;2023-05-18T14:32:08;16.60;99.90
18229;DHT22;9239;50.932;3.142;2023-05-18T14:34:35;16.60;99.90
18229;DHT22;9239;50.932;3.142;2023-05-18T14:37:03;16.70;99.90
18229;DHT22;9239;50.932;3.142;2023-05-18T14:39:30;16.70;99.90
18229;DHT22;9239;50.932;3.142;2023-05-18T14:41:57;16.70;99.90
18229;DHT22;9239;50.932;3.142;2023-05-18T14:44:24;16.80;99.90
18229;DHT22;9239;50.932;3.142;2023-05-18T14:46:51;16.80;99.90
18229;DHT22;9239;50.932;3.142;2023-05-18T14:49:18;16.80;99.90
18229;DHT22;9239;50.932;3.142;2023-05-18T14:51:45;16.80;99.90
18229;DHT22;9239;50.932;3.142;2023-05-18T14:54:13;16.70;99.90
18229;DHT22;9239;50.932;3.142;2023-05-18T14:56:41;16.90;99.90
18229;DHT22;9239;50.932;3.142;2023-05-18T14:59:08;16.80;99.90
18229;DHT22;9239;50.932;3.142;2023-05-18T15:01:34;16.70;99.90
18229;DHT22;9239;50.932;3.142;2023-05-18T15:04:02;16.90;99.90
18229;DHT22;9239;50.932;3.142;2023-05-18T15:06:29;16.90;99.90
18229;DHT22;9239;50.932;3.142;2023-05-18T15:08:56;16.80;99.90
18229;DHT22;9239;50.932;3.142;2023-05-18T15:11:24;16.60;99.90
18229;DHT22;9239;50.932;3.142;2023-05-18T15:13:51;16.60;99.90
18229;DHT22;9239;50.932;3.142;2023-05-18T15:16:18;16.40;99.90
18229;DHT22;9239;50.932;3.142;2023-05-18T15:18:45;16.50;99.90
18229;DHT22;9239;50.932;3.142;2023-05-18T15:21:12;16.50;99.90
18229;DHT22;9239;50.932;3.142;2023-05-18T15:23:39;16.60;99.90
18229;DHT22;9239;50.932;3.142;2023-05-18T15:26:06;16.70;99.90
18229;DHT22;9239;50.932;3.142;2023-05-18T15:28:34;16.70;99.90
18229;DHT22;9239;50.932;3.142;2023-05-18T15:31:02;16.50;99.90
18229;DHT22;9239;50.932;3.142;2023-05-18T15:33:29;16.40;99.90
18229;DHT22;9239;50.932;3.142;2023-05-18T15:35:56;16.30;99.90
18229;DHT22;9239;50.932;3.142;2023-05-18T15:38:23;16.30;99.90
18229;DHT22;9239;50.932;3.142;2023-05-18T15:40:50;16.30;99.90
18229;DHT22;9239;50.932;3.142;2023-05-18T15:43:16;16.30;99.90
18229;DHT22;9239;50.932;3.142;2023-05-18T15:45:46;16.30;99.90
18229;DHT22;9239;50.932;3.142;2023-05-18T15:48:13;16.50;99.90
18229;DHT22;9239;50.932;3.142;2023-05-18T15:50:39;16.50;99.90
18229;DHT22;9239;50.932;3.142;2023-05-18T15:53:06;16.50;99.90
18229;DHT22;9239;50.932;3.142;2023-05-18T15:55:33;16.60;99.90
18229;DHT22;9239;50.932;3.142;2023-05-18T15:58:00;16.50;99.90
18229;DHT22;9239;50.932;3.142;2023-05-18T16:00:28;16.50;99.90